sensor_id;sensor_type;location;lat;lon;timestamp;P1;durP1;ratioP1;P2;durP2;ratioP2
21657;SDS011;10990;48.174;9.782;2023-02-01T00:00:31;8.70;;;5.50;;
21657;SDS011;10990;48.174;9.782;2023-02-01T00:02:59;9.40;;;5.23;;
21657;SDS011;10990;48.174;9.782;2023-02-01T00:05:27;8.10;;;5.20;;
21657;SDS011;10990;48.174;9.782;2023-02-01T00:07:53;8.83;;;4.90;;
21657;SDS011;10990;48.174;9.782;2023-02-01T00:10:20;10.27;;;5.40;;
21657;SDS011;10990;48.174;9.782;2023-02-01T00:12:46;10.77;;;5.53;;
21657;SDS011;10990;48.174;9.782;2023-02-01T00:15:15;8.67;;;5.50;;
21657;SDS011;10990;48.174;9.782;2023-02-01T00:17:41;9.83;;;5.80;;
21657;SDS011;10990;48.174;9.782;2023-02-01T00:20:09;9.30;;;5.40;;
21657;SDS011;10990;48.174;9.782;2023-02-01T00:22:36;9.00;;;5.20;;
21657;SDS011;10990;48.174;9.782;2023-02-01T00:25:03;9.03;;;5.30;;
21657;SDS011;10990;48.174;9.782;2023-02-01T00:27:31;10.20;;;5.73;;
21657;SDS011;10990;48.174;9.782;2023-02-01T00:29:57;10.57;;;5.63;;
21657;SDS011;10990;48.174;9.782;2023-02-01T00:32:25;10.57;;;5.60;;
21657;SDS011;10990;48.174;9.782;2023-02-01T00:34:52;8.33;;;5.43;;
21657;SDS011;10990;48.174;9.782;2023-02-01T00:37:19;10.47;;;5.40;;
21657;SDS011;10990;48.174;9.782;2023-02-01T00:39:47;9.70;;;5.50;;
21657;SDS011;10990;48.174;9.782;2023-02-01T00:42:14;9.03;;;5.40;;
21657;SDS011;10990;48.174;9.782;2023-02-01T00:44:41;9.40;;;5.90;;
21657;SDS011;10990;48.174;9.782;2023-02-01T00:47:08;10.03;;;5.70;;
21657;SDS011;10990;48.174;9.782;2023-02-01T00:49:36;10.27;;;6.10;;
21657;SDS011;10990;48.174;9.782;2023-02-01T00:52:03;8.67;;;5.87;;
21657;SDS011;10990;48.174;9.782;2023-02-01T00:54:30;11.20;;;6.33;;
21657;SDS011;10990;48.174;9.782;2023-02-01T00:56:57;14.43;;;6.80;;
21657;SDS011;10990;48.174;9.782;2023-02-01T00:59:24;10.33;;;5.87;;
21657;SDS011;10990;48.174;9.782;2023-02-01T01:01:51;12.57;;;6.50;;
21657;SDS011;10990;48.174;9.782;2023-02-01T01:04:17;12.73;;;6.70;;
21657;SDS011;10990;48.174;9.782;2023-02-01T01:06:45;12.23;;;6.67;;
21657;SDS011;10990;48.174;9.782;2023-02-01T01:09:12;9.37;;;5.97;;
21657;SDS011;10990;48.174;9.782;2023-02-01T01:11:39;11.80;;;6.47;;
21657;SDS011;10990;48.174;9.782;2023-02-01T01:14:06;13.77;;;6.63;;
21657;SDS011;10990;48.174;9.782;2023-02-01T01:16:35;10.77;;;6.20;;
21657;SDS011;10990;48.174;9.782;2023-02-01T01:19:02;12.13;;;6.70;;
21657;SDS011;10990;48.174;9.782;2023-02-01T01:21:29;12.17;;;6.33;;
21657;SDS011;10990;48.174;9.782;2023-02-01T01:23:58;13.70;;;6.80;;
21657;SDS011;10990;48.174;9.782;2023-02-01T01:26:28;11.90;;;6.63;;
21657;SDS011;10990;48.174;9.782;2023-02-01T01:28:56;10.93;;;6.27;;
21657;SDS011;10990;48.174;9.782;2023-02-01T01:31:23;10.63;;;6.30;;
21657;SDS011;10990;48.174;9.782;2023-02-01T01:33:52;12.07;;;6.27;;
21657;SDS011;10990;48.174;9.782;2023-02-01T01:36:26;11.60;;;6.90;;
21657;SDS011;10990;48.174;9.782;2023-02-01T01:38:53;10.87;;;6.17;;
21657;SDS011;10990;48.174;9.782;2023-02-01T01:41:22;11.47;;;6.37;;
21657;SDS011;10990;48.174;9.782;2023-02-01T01:43:54;12.80;;;7.13;;
21657;SDS011;10990;48.174;9.782;2023-02-01T01:46:24;9.63;;;5.90;;
21657;SDS011;10990;48.174;9.782;2023-02-01T01:48:54;10.20;;;6.80;;
21657;SDS011;10990;48.174;9.782;2023-02-01T01:51:27;11.23;;;6.53;;
21657;SDS011;10990;48.174;9.782;2023-02-01T01:53:58;9.67;;;5.97;;
21657;SDS011;10990;48.174;9.782;2023-02-01T01:56:30;11.80;;;6.57;;
21657;SDS011;10990;48.174;9.782;2023-02-01T01:59:01;9.60;;;6.10;;
21657;SDS011;10990;48.174;9.782;2023-02-01T02:01:28;13.70;;;6.80;;
21657;SDS011;10990;48.174;9.782;2023-02-01T02:03:55;9.40;;;6.10;;
21657;SDS011;10990;48.174;9.782;2023-02-01T02:06:26;10.30;;;5.70;;
21657;SDS011;10990;48.174;9.782;2023-02-01T02:08:59;11.93;;;5.90;;
21657;SDS011;10990;48.174;9.782;2023-02-01T02:11:27;9.00;;;5.80;;
21657;SDS011;10990;48.174;9.782;2023-02-01T02:13:55;9.77;;;5.33;;
21657;SDS011;10990;48.174;9.782;2023-02-01T02:16:30;8.93;;;5.47;;
21657;SDS011;10990;48.174;9.782;2023-02-01T02:19:22;9.13;;;5.60;;
21657;SDS011;10990;48.174;9.782;2023-02-01T02:22:19;8.87;;;6.00;;
21657;SDS011;10990;48.174;9.782;2023-02-01T02:28:03;9.37;;;5.63;;
21657;SDS011;10990;48.174;9.782;2023-02-01T02:31:04;10.70;;;5.27;;
21657;SDS011;10990;48.174;9.782;2023-02-01T02:33:52;8.30;;;5.17;;
21657;SDS011;10990;48.174;9.782;2023-02-01T02:36:28;7.90;;;5.27;;
21657;SDS011;10990;48.174;9.782;2023-02-01T02:39:03;8.90;;;5.10;;
21657;SDS011;10990;48.174;9.782;2023-02-01T02:41:36;8.97;;;5.00;;
21657;SDS011;10990;48.174;9.782;2023-02-01T02:44:31;8.40;;;5.00;;
21657;SDS011;10990;48.174;9.782;2023-02-01T02:47:24;9.80;;;5.20;;
21657;SDS011;10990;48.174;9.782;2023-02-01T02:50:01;11.17;;;5.23;;
21657;SDS011;10990;48.174;9.782;2023-02-01T02:52:55;9.40;;;5.10;;
21657;SDS011;10990;48.174;9.782;2023-02-01T02:55:44;7.60;;;4.87;;
21657;SDS011;10990;48.174;9.782;2023-02-01T02:58:11;9.27;;;4.93;;
21657;SDS011;10990;48.174;9.782;2023-02-01T03:00:58;8.90;;;5.00;;
21657;SDS011;10990;48.174;9.782;2023-02-01T03:03:43;7.70;;;4.80;;
21657;SDS011;10990;48.174;9.782;2023-02-01T03:06:30;7.27;;;4.60;;
21657;SDS011;10990;48.174;9.782;2023-02-01T03:08:59;7.37;;;4.47;;
21657;SDS011;10990;48.174;9.782;2023-02-01T03:11:31;6.97;;;4.60;;
21657;SDS011;10990;48.174;9.782;2023-02-01T03:14:12;7.83;;;4.33;;
21657;SDS011;10990;48.174;9.782;2023-02-01T03:16:43;6.80;;;4.53;;
21657;SDS011;10990;48.174;9.782;2023-02-01T03:19:18;8.13;;;5.00;;
21657;SDS011;10990;48.174;9.782;2023-02-01T03:21:50;7.57;;;4.63;;
21657;SDS011;10990;48.174;9.782;2023-02-01T03:24:21;7.30;;;4.87;;
21657;SDS011;10990;48.174;9.782;2023-02-01T03:27:01;7.87;;;4.77;;
21657;SDS011;10990;48.174;9.782;2023-02-01T03:29:34;8.67;;;4.70;;
21657;SDS011;10990;48.174;9.782;2023-02-01T03:32:07;9.57;;;4.70;;
21657;SDS011;10990;48.174;9.782;2023-02-01T03:34:35;8.53;;;4.63;;
21657;SDS011;10990;48.174;9.782;2023-02-01T03:37:04;7.53;;;4.67;;
21657;SDS011;10990;48.174;9.782;2023-02-01T03:39:36;8.30;;;4.80;;
21657;SDS011;10990;48.174;9.782;2023-02-01T03:42:09;10.03;;;4.80;;
21657;SDS011;10990;48.174;9.782;2023-02-01T03:44:40;7.90;;;4.30;;
21657;SDS011;10990;48.174;9.782;2023-02-01T03:47:13;8.10;;;4.27;;
21657;SDS011;10990;48.174;9.782;2023-02-01T03:49:45;8.13;;;4.63;;
21657;SDS011;10990;48.174;9.782;2023-02-01T03:52:18;7.53;;;4.20;;
21657;SDS011;10990;48.174;9.782;2023-02-01T03:54:51;8.40;;;4.90;;
21657;SDS011;10990;48.174;9.782;2023-02-01T03:57:26;7.80;;;4.80;;
21657;SDS011;10990;48.174;9.782;2023-02-01T04:00:03;8.97;;;5.00;;
21657;SDS011;10990;48.174;9.782;2023-02-01T04:02:39;11.37;;;4.70;;
21657;SDS011;10990;48.174;9.782;2023-02-01T04:05:06;7.73;;;4.47;;
21657;SDS011;10990;48.174;9.782;2023-02-01T04:07:35;7.73;;;4.70;;
21657;SDS011;10990;48.174;9.782;2023-02-01T04:10:02;8.83;;;4.60;;
21657;SDS011;10990;48.174;9.782;2023-02-01T04:12:29;6.93;;;4.37;;
21657;SDS011;10990;48.174;9.782;2023-02-01T04:14:56;8.43;;;4.77;;
21657;SDS011;10990;48.174;9.782;2023-02-01T04:17:23;7.80;;;4.40;;
21657;SDS011;10990;48.174;9.782;2023-02-01T04:19:50;9.37;;;4.67;;
21657;SDS011;10990;48.174;9.782;2023-02-01T04:22:16;8.77;;;4.67;;
21657;SDS011;10990;48.174;9.782;2023-02-01T04:24:45;8.37;;;5.17;;
21657;SDS011;10990;48.174;9.782;2023-02-01T04:27:11;7.93;;;4.57;;
21657;SDS011;10990;48.174;9.782;2023-02-01T04:29:38;7.10;;;4.20;;
21657;SDS011;10990;48.174;9.782;2023-02-01T04:32:05;8.90;;;4.63;;
21657;SDS011;10990;48.174;9.782;2023-02-01T04:34:32;7.50;;;4.33;;
21657;SDS011;10990;48.174;9.782;2023-02-01T04:36:59;7.50;;;4.43;;
21657;SDS011;10990;48.174;9.782;2023-02-01T04:39:26;8.43;;;4.50;;
21657;SDS011;10990;48.174;9.782;2023-02-01T04:41:54;7.47;;;4.43;;
21657;SDS011;10990;48.174;9.782;2023-02-01T04:44:21;8.47;;;4.73;;
21657;SDS011;10990;48.174;9.782;2023-02-01T04:46:48;8.97;;;4.83;;
21657;SDS011;10990;48.174;9.782;2023-02-01T04:49:15;7.07;;;4.27;;
21657;SDS011;10990;48.174;9.782;2023-02-01T04:51:42;7.07;;;4.43;;
21657;SDS011;10990;48.174;9.782;2023-02-01T04:54:09;9.53;;;4.30;;
21657;SDS011;10990;48.174;9.782;2023-02-01T04:56:36;7.50;;;4.30;;
21657;SDS011;10990;48.174;9.782;2023-02-01T04:59:04;9.03;;;4.43;;
21657;SDS011;10990;48.174;9.782;2023-02-01T05:01:31;7.03;;;4.03;;
21657;SDS011;10990;48.174;9.782;2023-02-01T05:03:59;7.27;;;4.30;;
21657;SDS011;10990;48.174;9.782;2023-02-01T05:06:25;9.30;;;4.43;;
21657;SDS011;10990;48.174;9.782;2023-02-01T05:08:52;7.10;;;4.00;;
21657;SDS011;10990;48.174;9.782;2023-02-01T05:11:19;8.60;;;4.60;;
21657;SDS011;10990;48.174;9.782;2023-02-01T05:14:04;6.60;;;4.03;;
21657;SDS011;10990;48.174;9.782;2023-02-01T05:16:31;7.07;;;4.33;;
21657;SDS011;10990;48.174;9.782;2023-02-01T05:18:58;8.57;;;4.43;;
21657;SDS011;10990;48.174;9.782;2023-02-01T05:21:25;8.63;;;4.27;;
21657;SDS011;10990;48.174;9.782;2023-02-01T05:23:52;8.27;;;4.63;;
21657;SDS011;10990;48.174;9.782;2023-02-01T05:26:38;9.43;;;4.83;;
21657;SDS011;10990;48.174;9.782;2023-02-01T05:29:08;9.80;;;5.03;;
21657;SDS011;10990;48.174;9.782;2023-02-01T05:31:36;10.07;;;5.00;;
21657;SDS011;10990;48.174;9.782;2023-02-01T05:34:03;8.03;;;4.87;;
21657;SDS011;10990;48.174;9.782;2023-02-01T05:36:29;8.13;;;5.00;;
21657;SDS011;10990;48.174;9.782;2023-02-01T05:38:56;9.63;;;5.00;;
21657;SDS011;10990;48.174;9.782;2023-02-01T05:41:23;8.17;;;4.80;;
21657;SDS011;10990;48.174;9.782;2023-02-01T05:43:50;9.33;;;4.90;;
21657;SDS011;10990;48.174;9.782;2023-02-01T05:46:18;8.53;;;4.47;;
21657;SDS011;10990;48.174;9.782;2023-02-01T05:48:45;8.63;;;4.80;;
21657;SDS011;10990;48.174;9.782;2023-02-01T05:51:12;8.37;;;4.63;;
21657;SDS011;10990;48.174;9.782;2023-02-01T05:53:39;7.33;;;4.43;;
21657;SDS011;10990;48.174;9.782;2023-02-01T05:56:06;7.33;;;4.77;;
21657;SDS011;10990;48.174;9.782;2023-02-01T05:58:33;7.83;;;4.50;;
21657;SDS011;10990;48.174;9.782;2023-02-01T06:01:00;8.47;;;4.87;;
21657;SDS011;10990;48.174;9.782;2023-02-01T06:03:29;8.67;;;4.90;;
21657;SDS011;10990;48.174;9.782;2023-02-01T06:05:56;9.87;;;5.50;;
21657;SDS011;10990;48.174;9.782;2023-02-01T06:08:22;8.90;;;5.00;;
21657;SDS011;10990;48.174;9.782;2023-02-01T06:10:50;8.87;;;5.50;;
21657;SDS011;10990;48.174;9.782;2023-02-01T06:13:23;8.33;;;4.80;;
21657;SDS011;10990;48.174;9.782;2023-02-01T06:15:49;8.23;;;4.80;;
21657;SDS011;10990;48.174;9.782;2023-02-01T06:18:17;7.17;;;4.50;;
21657;SDS011;10990;48.174;9.782;2023-02-01T06:20:51;9.57;;;5.13;;
21657;SDS011;10990;48.174;9.782;2023-02-01T06:23:18;11.23;;;5.00;;
21657;SDS011;10990;48.174;9.782;2023-02-01T06:25:49;8.40;;;4.80;;
21657;SDS011;10990;48.174;9.782;2023-02-01T06:28:16;8.80;;;4.70;;
21657;SDS011;10990;48.174;9.782;2023-02-01T06:30:43;9.47;;;4.50;;
21657;SDS011;10990;48.174;9.782;2023-02-01T06:33:12;6.67;;;4.47;;
21657;SDS011;10990;48.174;9.782;2023-02-01T06:35:40;6.43;;;4.00;;
21657;SDS011;10990;48.174;9.782;2023-02-01T06:38:10;7.83;;;4.37;;
21657;SDS011;10990;48.174;9.782;2023-02-01T06:40:37;7.70;;;4.40;;
21657;SDS011;10990;48.174;9.782;2023-02-01T06:43:04;7.50;;;4.20;;
21657;SDS011;10990;48.174;9.782;2023-02-01T06:45:31;6.50;;;3.80;;
21657;SDS011;10990;48.174;9.782;2023-02-01T06:47:58;7.33;;;4.30;;
21657;SDS011;10990;48.174;9.782;2023-02-01T06:50:25;7.60;;;4.60;;
21657;SDS011;10990;48.174;9.782;2023-02-01T06:52:52;7.77;;;4.17;;
21657;SDS011;10990;48.174;9.782;2023-02-01T06:55:20;7.50;;;4.87;;
21657;SDS011;10990;48.174;9.782;2023-02-01T06:57:47;7.73;;;4.27;;
21657;SDS011;10990;48.174;9.782;2023-02-01T07:00:14;6.77;;;4.00;;
21657;SDS011;10990;48.174;9.782;2023-02-01T07:02:41;7.53;;;4.40;;
21657;SDS011;10990;48.174;9.782;2023-02-01T07:05:08;8.23;;;4.30;;
21657;SDS011;10990;48.174;9.782;2023-02-01T07:07:35;7.93;;;4.23;;
21657;SDS011;10990;48.174;9.782;2023-02-01T07:10:02;8.23;;;4.53;;
21657;SDS011;10990;48.174;9.782;2023-02-01T07:12:30;7.03;;;4.70;;
21657;SDS011;10990;48.174;9.782;2023-02-01T07:14:57;7.70;;;4.67;;
21657;SDS011;10990;48.174;9.782;2023-02-01T07:17:24;8.13;;;4.70;;
21657;SDS011;10990;48.174;9.782;2023-02-01T07:19:50;8.70;;;4.80;;
21657;SDS011;10990;48.174;9.782;2023-02-01T07:22:17;9.17;;;4.83;;
21657;SDS011;10990;48.174;9.782;2023-02-01T07:24:44;8.50;;;4.90;;
21657;SDS011;10990;48.174;9.782;2023-02-01T07:27:10;7.40;;;4.30;;
21657;SDS011;10990;48.174;9.782;2023-02-01T07:29:38;7.87;;;4.70;;
21657;SDS011;10990;48.174;9.782;2023-02-01T07:32:05;8.40;;;4.57;;
21657;SDS011;10990;48.174;9.782;2023-02-01T07:34:32;8.73;;;4.80;;
21657;SDS011;10990;48.174;9.782;2023-02-01T07:36:59;7.13;;;4.80;;
21657;SDS011;10990;48.174;9.782;2023-02-01T07:39:25;9.17;;;4.90;;
21657;SDS011;10990;48.174;9.782;2023-02-01T07:41:53;9.03;;;4.77;;
21657;SDS011;10990;48.174;9.782;2023-02-01T07:44:21;8.70;;;4.67;;
21657;SDS011;10990;48.174;9.782;2023-02-01T07:46:50;9.60;;;5.10;;
21657;SDS011;10990;48.174;9.782;2023-02-01T07:49:16;9.03;;;5.10;;
21657;SDS011;10990;48.174;9.782;2023-02-01T07:51:43;7.93;;;5.20;;
21657;SDS011;10990;48.174;9.782;2023-02-01T07:54:10;8.37;;;5.37;;
21657;SDS011;10990;48.174;9.782;2023-02-01T07:56:37;8.90;;;5.23;;
21657;SDS011;10990;48.174;9.782;2023-02-01T07:59:03;10.93;;;5.43;;
21657;SDS011;10990;48.174;9.782;2023-02-01T08:01:32;9.03;;;5.23;;
21657;SDS011;10990;48.174;9.782;2023-02-01T08:03:59;9.50;;;5.23;;
21657;SDS011;10990;48.174;9.782;2023-02-01T08:06:27;9.27;;;5.30;;
21657;SDS011;10990;48.174;9.782;2023-02-01T08:08:56;9.80;;;5.43;;
21657;SDS011;10990;48.174;9.782;2023-02-01T08:11:23;9.07;;;5.43;;
21657;SDS011;10990;48.174;9.782;2023-02-01T08:13:51;13.17;;;7.40;;
21657;SDS011;10990;48.174;9.782;2023-02-01T08:16:18;9.93;;;6.10;;
21657;SDS011;10990;48.174;9.782;2023-02-01T08:18:46;9.93;;;5.87;;
21657;SDS011;10990;48.174;9.782;2023-02-01T08:21:15;10.17;;;5.57;;
21657;SDS011;10990;48.174;9.782;2023-02-01T08:23:44;9.90;;;5.60;;
21657;SDS011;10990;48.174;9.782;2023-02-01T08:26:11;8.37;;;5.30;;
21657;SDS011;10990;48.174;9.782;2023-02-01T08:28:40;9.30;;;4.97;;
21657;SDS011;10990;48.174;9.782;2023-02-01T08:31:09;8.63;;;4.97;;
21657;SDS011;10990;48.174;9.782;2023-02-01T08:33:39;9.03;;;5.13;;
21657;SDS011;10990;48.174;9.782;2023-02-01T08:36:08;7.53;;;4.80;;
21657;SDS011;10990;48.174;9.782;2023-02-01T08:38:37;8.10;;;4.97;;
21657;SDS011;10990;48.174;9.782;2023-02-01T08:41:07;8.47;;;5.03;;
21657;SDS011;10990;48.174;9.782;2023-02-01T08:43:35;7.63;;;4.80;;
21657;SDS011;10990;48.174;9.782;2023-02-01T08:46:02;7.63;;;4.87;;
21657;SDS011;10990;48.174;9.782;2023-02-01T08:48:29;8.33;;;4.80;;
21657;SDS011;10990;48.174;9.782;2023-02-01T08:50:56;8.23;;;4.47;;
21657;SDS011;10990;48.174;9.782;2023-02-01T08:53:23;9.03;;;4.87;;
21657;SDS011;10990;48.174;9.782;2023-02-01T08:55:51;7.07;;;4.73;;
21657;SDS011;10990;48.174;9.782;2023-02-01T08:58:18;7.80;;;4.50;;
21657;SDS011;10990;48.174;9.782;2023-02-01T09:00:46;9.53;;;5.00;;
21657;SDS011;10990;48.174;9.782;2023-02-01T09:03:14;7.23;;;4.60;;
21657;SDS011;10990;48.174;9.782;2023-02-01T09:05:41;7.57;;;4.70;;
21657;SDS011;10990;48.174;9.782;2023-02-01T09:08:08;7.30;;;4.23;;
21657;SDS011;10990;48.174;9.782;2023-02-01T09:10:35;5.53;;;3.83;;
21657;SDS011;10990;48.174;9.782;2023-02-01T09:13:04;6.63;;;4.10;;
21657;SDS011;10990;48.174;9.782;2023-02-01T09:15:30;8.13;;;4.27;;
21657;SDS011;10990;48.174;9.782;2023-02-01T09:17:57;7.47;;;4.50;;
21657;SDS011;10990;48.174;9.782;2023-02-01T09:20:24;5.50;;;3.70;;
21657;SDS011;10990;48.174;9.782;2023-02-01T09:22:50;8.60;;;4.10;;
21657;SDS011;10990;48.174;9.782;2023-02-01T09:25:17;7.53;;;3.70;;
21657;SDS011;10990;48.174;9.782;2023-02-01T09:27:44;7.20;;;4.17;;
21657;SDS011;10990;48.174;9.782;2023-02-01T09:30:13;7.67;;;4.80;;
21657;SDS011;10990;48.174;9.782;2023-02-01T09:32:40;6.07;;;4.03;;
21657;SDS011;10990;48.174;9.782;2023-02-01T09:35:06;7.93;;;4.27;;
21657;SDS011;10990;48.174;9.782;2023-02-01T09:37:33;5.97;;;3.90;;
21657;SDS011;10990;48.174;9.782;2023-02-01T09:40:01;7.03;;;4.30;;
21657;SDS011;10990;48.174;9.782;2023-02-01T09:42:41;8.13;;;4.43;;
21657;SDS011;10990;48.174;9.782;2023-02-01T09:45:21;7.37;;;4.57;;
21657;SDS011;10990;48.174;9.782;2023-02-01T09:47:55;8.30;;;4.37;;
21657;SDS011;10990;48.174;9.782;2023-02-01T09:50:28;7.63;;;4.73;;
21657;SDS011;10990;48.174;9.782;2023-02-01T09:53:01;7.20;;;4.60;;
21657;SDS011;10990;48.174;9.782;2023-02-01T09:55:32;8.23;;;5.00;;
21657;SDS011;10990;48.174;9.782;2023-02-01T09:58:07;6.27;;;4.40;;
21657;SDS011;10990;48.174;9.782;2023-02-01T10:00:39;7.70;;;4.60;;
21657;SDS011;10990;48.174;9.782;2023-02-01T10:03:10;6.73;;;4.30;;
21657;SDS011;10990;48.174;9.782;2023-02-01T10:05:43;6.80;;;4.57;;
21657;SDS011;10990;48.174;9.782;2023-02-01T10:08:29;7.77;;;4.53;;
21657;SDS011;10990;48.174;9.782;2023-02-01T10:11:15;9.10;;;4.47;;
21657;SDS011;10990;48.174;9.782;2023-02-01T10:13:50;8.10;;;4.30;;
21657;SDS011;10990;48.174;9.782;2023-02-01T10:16:28;6.77;;;4.50;;
21657;SDS011;10990;48.174;9.782;2023-02-01T10:22:00;6.87;;;4.37;;
21657;SDS011;10990;48.174;9.782;2023-02-01T10:24:36;7.17;;;4.33;;
21657;SDS011;10990;48.174;9.782;2023-02-01T10:27:13;10.57;;;4.93;;
21657;SDS011;10990;48.174;9.782;2023-02-01T10:29:44;8.60;;;4.70;;
21657;SDS011;10990;48.174;9.782;2023-02-01T10:32:16;6.33;;;4.47;;
21657;SDS011;10990;48.174;9.782;2023-02-01T10:34:44;6.97;;;4.40;;
21657;SDS011;10990;48.174;9.782;2023-02-01T10:37:25;7.47;;;4.53;;
21657;SDS011;10990;48.174;9.782;2023-02-01T10:39:55;7.57;;;4.33;;
21657;SDS011;10990;48.174;9.782;2023-02-01T10:42:24;6.23;;;4.30;;
21657;SDS011;10990;48.174;9.782;2023-02-01T10:44:52;7.43;;;4.10;;
21657;SDS011;10990;48.174;9.782;2023-02-01T10:47:23;7.00;;;4.40;;
21657;SDS011;10990;48.174;9.782;2023-02-01T10:49:52;6.93;;;4.10;;
21657;SDS011;10990;48.174;9.782;2023-02-01T10:52:29;8.67;;;4.07;;
21657;SDS011;10990;48.174;9.782;2023-02-01T10:57:55;6.80;;;4.27;;
21657;SDS011;10990;48.174;9.782;2023-02-01T11:00:23;7.60;;;3.80;;
21657;SDS011;10990;48.174;9.782;2023-02-01T11:02:52;6.00;;;4.13;;
21657;SDS011;10990;48.174;9.782;2023-02-01T11:05:21;6.90;;;4.00;;
21657;SDS011;10990;48.174;9.782;2023-02-01T11:07:49;6.53;;;4.00;;
21657;SDS011;10990;48.174;9.782;2023-02-01T11:13:11;6.97;;;3.90;;
21657;SDS011;10990;48.174;9.782;2023-02-01T11:15:45;6.60;;;4.10;;
21657;SDS011;10990;48.174;9.782;2023-02-01T11:18:16;7.20;;;4.27;;
21657;SDS011;10990;48.174;9.782;2023-02-01T11:20:44;6.73;;;3.90;;
21657;SDS011;10990;48.174;9.782;2023-02-01T11:23:15;6.93;;;4.07;;
21657;SDS011;10990;48.174;9.782;2023-02-01T11:25:49;8.07;;;4.43;;
21657;SDS011;10990;48.174;9.782;2023-02-01T11:28:19;6.80;;;4.23;;
21657;SDS011;10990;48.174;9.782;2023-02-01T11:30:51;8.80;;;5.23;;
21657;SDS011;10990;48.174;9.782;2023-02-01T11:33:24;7.60;;;4.67;;
21657;SDS011;10990;48.174;9.782;2023-02-01T11:35:55;7.63;;;4.97;;
21657;SDS011;10990;48.174;9.782;2023-02-01T11:38:26;8.47;;;4.73;;
21657;SDS011;10990;48.174;9.782;2023-02-01T11:40:54;7.20;;;4.80;;
21657;SDS011;10990;48.174;9.782;2023-02-01T11:43:23;7.30;;;4.60;;
21657;SDS011;10990;48.174;9.782;2023-02-01T11:45:56;8.57;;;4.53;;
21657;SDS011;10990;48.174;9.782;2023-02-01T11:48:26;7.37;;;4.63;;
21657;SDS011;10990;48.174;9.782;2023-02-01T11:50:58;7.83;;;5.17;;
21657;SDS011;10990;48.174;9.782;2023-02-01T11:53:38;8.10;;;5.13;;
21657;SDS011;10990;48.174;9.782;2023-02-01T11:56:15;7.43;;;4.43;;
21657;SDS011;10990;48.174;9.782;2023-02-01T11:58:55;11.23;;;4.53;;
21657;SDS011;10990;48.174;9.782;2023-02-01T12:01:34;7.57;;;4.63;;
21657;SDS011;10990;48.174;9.782;2023-02-01T12:04:16;8.10;;;4.63;;
21657;SDS011;10990;48.174;9.782;2023-02-01T12:06:56;8.67;;;4.60;;
21657;SDS011;10990;48.174;9.782;2023-02-01T12:09:34;8.60;;;5.10;;
21657;SDS011;10990;48.174;9.782;2023-02-01T12:12:16;7.13;;;4.37;;
21657;SDS011;10990;48.174;9.782;2023-02-01T12:14:53;7.13;;;3.90;;
21657;SDS011;10990;48.174;9.782;2023-02-01T12:17:40;7.10;;;4.20;;
21657;SDS011;10990;48.174;9.782;2023-02-01T12:20:31;7.47;;;4.07;;
21657;SDS011;10990;48.174;9.782;2023-02-01T12:23:16;6.73;;;4.30;;
21657;SDS011;10990;48.174;9.782;2023-02-01T12:25:58;8.67;;;4.73;;
21657;SDS011;10990;48.174;9.782;2023-02-01T12:31:46;6.50;;;4.07;;
21657;SDS011;10990;48.174;9.782;2023-02-01T12:34:31;7.20;;;4.03;;
21657;SDS011;10990;48.174;9.782;2023-02-01T12:37:11;7.30;;;4.13;;
21657;SDS011;10990;48.174;9.782;2023-02-01T12:39:48;9.43;;;4.80;;
21657;SDS011;10990;48.174;9.782;2023-02-01T12:42:24;8.53;;;4.47;;
21657;SDS011;10990;48.174;9.782;2023-02-01T12:44:55;8.43;;;4.67;;
21657;SDS011;10990;48.174;9.782;2023-02-01T12:47:28;9.07;;;4.43;;
21657;SDS011;10990;48.174;9.782;2023-02-01T12:50:00;8.03;;;4.30;;
21657;SDS011;10990;48.174;9.782;2023-02-01T12:52:32;7.77;;;4.23;;
21657;SDS011;10990;48.174;9.782;2023-02-01T12:55:06;6.93;;;4.20;;
21657;SDS011;10990;48.174;9.782;2023-02-01T12:57:42;6.27;;;4.00;;
21657;SDS011;10990;48.174;9.782;2023-02-01T13:02:50;7.17;;;3.90;;
21657;SDS011;10990;48.174;9.782;2023-02-01T13:05:22;9.30;;;4.40;;
21657;SDS011;10990;48.174;9.782;2023-02-01T13:07:57;8.47;;;4.67;;
21657;SDS011;10990;48.174;9.782;2023-02-01T13:10:29;7.27;;;4.20;;
21657;SDS011;10990;48.174;9.782;2023-02-01T13:13:02;7.13;;;4.13;;
21657;SDS011;10990;48.174;9.782;2023-02-01T13:15:33;7.63;;;4.30;;
21657;SDS011;10990;48.174;9.782;2023-02-01T13:18:05;7.67;;;4.00;;
21657;SDS011;10990;48.174;9.782;2023-02-01T13:20:35;8.10;;;4.37;;
21657;SDS011;10990;48.174;9.782;2023-02-01T13:23:09;6.77;;;4.03;;
21657;SDS011;10990;48.174;9.782;2023-02-01T13:25:45;7.87;;;4.20;;
21657;SDS011;10990;48.174;9.782;2023-02-01T13:28:15;7.23;;;3.87;;
21657;SDS011;10990;48.174;9.782;2023-02-01T13:30:51;6.87;;;4.43;;
21657;SDS011;10990;48.174;9.782;2023-02-01T13:33:31;6.30;;;3.77;;
21657;SDS011;10990;48.174;9.782;2023-02-01T13:36:21;7.73;;;3.87;;
21657;SDS011;10990;48.174;9.782;2023-02-01T13:39:28;8.57;;;3.90;;
21657;SDS011;10990;48.174;9.782;2023-02-01T13:42:13;8.00;;;3.80;;
21657;SDS011;10990;48.174;9.782;2023-02-01T13:44:44;6.93;;;3.30;;
21657;SDS011;10990;48.174;9.782;2023-02-01T13:47:16;6.73;;;3.20;;
21657;SDS011;10990;48.174;9.782;2023-02-01T13:49:50;6.30;;;3.70;;
21657;SDS011;10990;48.174;9.782;2023-02-01T13:52:25;9.00;;;4.20;;
21657;SDS011;10990;48.174;9.782;2023-02-01T13:55:22;6.17;;;3.50;;
21657;SDS011;10990;48.174;9.782;2023-02-01T13:57:52;8.93;;;4.10;;
21657;SDS011;10990;48.174;9.782;2023-02-01T14:00:28;6.73;;;4.03;;
21657;SDS011;10990;48.174;9.782;2023-02-01T14:05:58;5.27;;;3.30;;
21657;SDS011;10990;48.174;9.782;2023-02-01T14:08:46;6.33;;;2.70;;
21657;SDS011;10990;48.174;9.782;2023-02-01T14:11:37;6.03;;;2.60;;
21657;SDS011;10990;48.174;9.782;2023-02-01T14:14:07;7.80;;;2.23;;
21657;SDS011;10990;48.174;9.782;2023-02-01T14:23:24;8.73;;;1.90;;
21657;SDS011;10990;48.174;9.782;2023-02-01T14:28:49;4.77;;;1.70;;
21657;SDS011;10990;48.174;9.782;2023-02-01T14:31:41;6.40;;;1.80;;
21657;SDS011;10990;48.174;9.782;2023-02-01T14:34:16;9.20;;;1.80;;
21657;SDS011;10990;48.174;9.782;2023-02-01T14:36:48;5.70;;;1.67;;
21657;SDS011;10990;48.174;9.782;2023-02-01T14:39:19;7.37;;;1.70;;
21657;SDS011;10990;48.174;9.782;2023-02-01T14:41:53;6.07;;;1.90;;
21657;SDS011;10990;48.174;9.782;2023-02-01T14:44:26;5.30;;;1.60;;
21657;SDS011;10990;48.174;9.782;2023-02-01T14:47:05;8.73;;;2.10;;
21657;SDS011;10990;48.174;9.782;2023-02-01T14:49:37;5.33;;;1.67;;
21657;SDS011;10990;48.174;9.782;2023-02-01T14:52:11;5.30;;;2.00;;
21657;SDS011;10990;48.174;9.782;2023-02-01T14:54:49;5.27;;;1.73;;
21657;SDS011;10990;48.174;9.782;2023-02-01T14:57:21;4.10;;;1.77;;
21657;SDS011;10990;48.174;9.782;2023-02-01T14:59:53;3.47;;;1.80;;
21657;SDS011;10990;48.174;9.782;2023-02-01T15:02:26;4.63;;;1.80;;
21657;SDS011;10990;48.174;9.782;2023-02-01T15:04:55;6.47;;;2.07;;
21657;SDS011;10990;48.174;9.782;2023-02-01T15:07:23;5.60;;;1.93;;
21657;SDS011;10990;48.174;9.782;2023-02-01T15:09:52;5.20;;;2.10;;
21657;SDS011;10990;48.174;9.782;2023-02-01T15:12:23;5.53;;;2.20;;
21657;SDS011;10990;48.174;9.782;2023-02-01T15:15:12;5.03;;;2.03;;
21657;SDS011;10990;48.174;9.782;2023-02-01T15:17:41;6.17;;;2.10;;
21657;SDS011;10990;48.174;9.782;2023-02-01T15:20:12;4.50;;;2.07;;
21657;SDS011;10990;48.174;9.782;2023-02-01T15:22:40;5.03;;;2.10;;
21657;SDS011;10990;48.174;9.782;2023-02-01T15:25:17;5.83;;;2.30;;
21657;SDS011;10990;48.174;9.782;2023-02-01T15:27:46;3.93;;;1.80;;
21657;SDS011;10990;48.174;9.782;2023-02-01T15:30:17;6.80;;;2.10;;
21657;SDS011;10990;48.174;9.782;2023-02-01T15:32:46;7.40;;;1.90;;
21657;SDS011;10990;48.174;9.782;2023-02-01T15:35:36;6.87;;;2.17;;
21657;SDS011;10990;48.174;9.782;2023-02-01T15:38:20;5.43;;;1.97;;
21657;SDS011;10990;48.174;9.782;2023-02-01T15:40:58;6.87;;;2.00;;